sensor_id;sensor_type;location;lat;lon;timestamp;pressure;altitude;pressure_sealevel;temperature;humidity
61086;BME280;46967;48.876;2.136;2023-03-14T00:01:15;99183.53;;;10.48;93.28
61086;BME280;46967;48.876;2.136;2023-03-14T00:03:40;99176.63;;;10.48;92.96
61086;BME280;46967;48.876;2.136;2023-03-14T00:06:06;99192.03;;;10.51;92.00
61086;BME280;46967;48.876;2.136;2023-03-14T00:08:32;99193.34;;;10.43;92.75
61086;BME280;46967;48.876;2.136;2023-03-14T00:10:58;99188.72;;;10.48;93.45
61086;BME280;46967;48.876;2.136;2023-03-14T00:13:28;99178.78;;;10.40;93.90
61086;BME280;46967;48.876;2.136;2023-03-14T00:15:53;99169.84;;;10.46;94.38
61086;BME280;46967;48.876;2.136;2023-03-14T00:18:19;99163.38;;;10.37;95.12
61086;BME280;46967;48.876;2.136;2023-03-14T00:20:44;99158.47;;;10.32;95.61
61086;BME280;46967;48.876;2.136;2023-03-14T00:23:10;99167.47;;;10.25;96.29
61086;BME280;46967;48.876;2.136;2023-03-14T00:25:35;99166.56;;;10.26;96.00
61086;BME280;46967;48.876;2.136;2023-03-14T00:28:00;99168.66;;;10.36;95.55
61086;BME280;46967;48.876;2.136;2023-03-14T00:30:26;99167.00;;;10.35;95.59
61086;BME280;46967;48.876;2.136;2023-03-14T00:32:51;99144.50;;;10.35;95.93
61086;BME280;46967;48.876;2.136;2023-03-14T00:35:16;99151.34;;;10.36;95.70
61086;BME280;46967;48.876;2.136;2023-03-14T00:37:42;99147.81;;;10.37;95.43
61086;BME280;46967;48.876;2.136;2023-03-14T00:40:08;99147.09;;;10.35;96.10
61086;BME280;46967;48.876;2.136;2023-03-14T00:42:34;99154.13;;;10.33;96.21
61086;BME280;46967;48.876;2.136;2023-03-14T00:44:59;99153.09;;;10.36;95.85
61086;BME280;46967;48.876;2.136;2023-03-14T00:47:25;99150.34;;;10.39;96.29
61086;BME280;46967;48.876;2.136;2023-03-14T00:49:50;99154.94;;;10.33;96.63
61086;BME280;46967;48.876;2.136;2023-03-14T00:52:15;99154.13;;;10.33;96.76
61086;BME280;46967;48.876;2.136;2023-03-14T00:54:41;99150.63;;;10.34;96.79
61086;BME280;46967;48.876;2.136;2023-03-14T00:57:06;99148.94;;;10.33;96.84
61086;BME280;46967;48.876;2.136;2023-03-14T00:59:31;99161.72;;;10.36;96.85
61086;BME280;46967;48.876;2.136;2023-03-14T01:01:57;99154.13;;;10.33;97.14
61086;BME280;46967;48.876;2.136;2023-03-14T01:04:22;99151.53;;;10.33;97.35
61086;BME280;46967;48.876;2.136;2023-03-14T01:06:47;99163.72;;;10.31;97.70
61086;BME280;46967;48.876;2.136;2023-03-14T01:09:13;99151.53;;;10.33;97.67
61086;BME280;46967;48.876;2.136;2023-03-14T01:11:38;99157.53;;;10.33;97.93
61086;BME280;46967;48.876;2.136;2023-03-14T01:14:04;99155.59;;;10.37;97.65
61086;BME280;46967;48.876;2.136;2023-03-14T01:16:32;99153.28;;;10.32;97.84
61086;BME280;46967;48.876;2.136;2023-03-14T01:18:58;99149.88;;;10.30;98.10
61086;BME280;46967;48.876;2.136;2023-03-14T01:21:28;99152.94;;;10.39;97.71
61086;BME280;46967;48.876;2.136;2023-03-14T01:23:55;99156.53;;;10.36;97.92
61086;BME280;46967;48.876;2.136;2023-03-14T01:26:23;99178.84;;;10.39;97.64
61086;BME280;46967;48.876;2.136;2023-03-14T01:28:50;99164.31;;;10.36;98.01
61086;BME280;46967;48.876;2.136;2023-03-14T01:31:16;99163.59;;;10.34;98.72
61086;BME280;46967;48.876;2.136;2023-03-14T01:33:42;99154.25;;;10.30;98.80
61086;BME280;46967;48.876;2.136;2023-03-14T01:36:08;99161.06;;;10.32;98.90
61086;BME280;46967;48.876;2.136;2023-03-14T01:38:35;99165.38;;;10.32;99.36
61086;BME280;46967;48.876;2.136;2023-03-14T01:41:01;99157.28;;;10.38;99.15
61086;BME280;46967;48.876;2.136;2023-03-14T01:43:27;99163.13;;;10.42;98.81
61086;BME280;46967;48.876;2.136;2023-03-14T01:51:02;99158.88;;;10.41;99.12
61086;BME280;46967;48.876;2.136;2023-03-14T01:53:29;99155.09;;;10.46;98.56
61086;BME280;46967;48.876;2.136;2023-03-14T01:55:55;99154.44;;;10.43;98.86
61086;BME280;46967;48.876;2.136;2023-03-14T01:58:25;99150.25;;;10.40;98.80
61086;BME280;46967;48.876;2.136;2023-03-14T02:00:57;99155.28;;;10.43;98.67
61086;BME280;46967;48.876;2.136;2023-03-14T02:03:24;99148.44;;;10.42;99.09
61086;BME280;46967;48.876;2.136;2023-03-14T02:05:53;99145.75;;;10.44;99.10
61086;BME280;46967;48.876;2.136;2023-03-14T02:08:22;99146.84;;;10.40;99.30
61086;BME280;46967;48.876;2.136;2023-03-14T02:10:49;99146.84;;;10.40;99.44
61086;BME280;46967;48.876;2.136;2023-03-14T02:13:17;99143.56;;;10.36;99.74
61086;BME280;46967;48.876;2.136;2023-03-14T02:15:43;99158.28;;;10.36;99.90
61086;BME280;46967;48.876;2.136;2023-03-14T02:18:09;99159.63;;;10.43;100.00
61086;BME280;46967;48.876;2.136;2023-03-14T02:23:23;99164.06;;;10.41;100.00
61086;BME280;46967;48.876;2.136;2023-03-14T02:26:28;99154.84;;;10.51;99.69
61086;BME280;46967;48.876;2.136;2023-03-14T02:28:50;99164.97;;;10.40;100.00
61086;BME280;46967;48.876;2.136;2023-03-14T02:31:18;99160.38;;;10.45;99.96
61086;BME280;46967;48.876;2.136;2023-03-14T02:33:43;99151.84;;;10.43;100.00
61086;BME280;46967;48.876;2.136;2023-03-14T02:36:11;99149.09;;;10.46;100.00
61086;BME280;46967;48.876;2.136;2023-03-14T02:38:47;99144.41;;;10.37;100.00
61086;BME280;46967;48.876;2.136;2023-03-14T02:41:15;99146.09;;;10.38;100.00
61086;BME280;46967;48.876;2.136;2023-03-14T02:43:41;99148.59;;;10.39;100.00
61086;BME280;46967;48.876;2.136;2023-03-14T02:46:10;99147.38;;;10.29;100.00
61086;BME280;46967;48.876;2.136;2023-03-14T02:48:43;99144.03;;;10.27;100.00
61086;BME280;46967;48.876;2.136;2023-03-14T02:51:11;99137.59;;;10.18;100.00
61086;BME280;46967;48.876;2.136;2023-03-14T02:53:38;99147.63;;;10.24;100.00
61086;BME280;46967;48.876;2.136;2023-03-14T02:56:05;99152.25;;;10.19;100.00
61086;BME280;46967;48.876;2.136;2023-03-14T02:58:31;99140.97;;;10.20;100.00
61086;BME280;46967;48.876;2.136;2023-03-14T03:00:56;99142.03;;;10.16;100.00
61086;BME280;46967;48.876;2.136;2023-03-14T03:03:21;99143.56;;;10.20;100.00
61086;BME280;46967;48.876;2.136;2023-03-14T03:05:48;99133.00;;;10.23;100.00
61086;BME280;46967;48.876;2.136;2023-03-14T03:08:15;99135.94;;;10.17;100.00
61086;BME280;46967;48.876;2.136;2023-03-14T03:10:40;99141.13;;;10.17;100.00
61086;BME280;46967;48.876;2.136;2023-03-14T03:13:06;99148.31;;;10.12;100.00
61086;BME280;46967;48.876;2.136;2023-03-14T03:15:31;99149.88;;;10.14;100.00
61086;BME280;46967;48.876;2.136;2023-03-14T03:17:56;99147.13;;;10.18;100.00
61086;BME280;46967;48.876;2.136;2023-03-14T03:20:22;99148.66;;;10.22;100.00
61086;BME280;46967;48.876;2.136;2023-03-14T03:22:47;99145.72;;;10.12;100.00
61086;BME280;46967;48.876;2.136;2023-03-14T03:25:14;99150.75;;;10.15;100.00
61086;BME280;46967;48.876;2.136;2023-03-14T03:27:40;99151.09;;;10.25;100.00
61086;BME280;46967;48.876;2.136;2023-03-14T03:30:06;99159.19;;;10.19;100.00
61086;BME280;46967;48.876;2.136;2023-03-14T03:32:33;99161.38;;;10.10;100.00
61086;BME280;46967;48.876;2.136;2023-03-14T03:34:58;99163.50;;;10.02;100.00
61086;BME280;46967;48.876;2.136;2023-03-14T03:37:24;99160.19;;;10.16;100.00
61086;BME280;46967;48.876;2.136;2023-03-14T03:39:52;99173.06;;;10.18;100.00
61086;BME280;46967;48.876;2.136;2023-03-14T03:42:18;99165.03;;;10.22;100.00
61086;BME280;46967;48.876;2.136;2023-03-14T03:44:45;99159.09;;;10.20;100.00
61086;BME280;46967;48.876;2.136;2023-03-14T03:47:10;99175.91;;;10.29;100.00
61086;BME280;46967;48.876;2.136;2023-03-14T03:49:36;99166.72;;;10.23;100.00
61086;BME280;46967;48.876;2.136;2023-03-14T03:52:01;99170.81;;;10.27;100.00
61086;BME280;46967;48.876;2.136;2023-03-14T03:54:26;99174.16;;;10.29;100.00
61086;BME280;46967;48.876;2.136;2023-03-14T03:56:53;99185.63;;;10.25;100.00
61086;BME280;46967;48.876;2.136;2023-03-14T03:59:19;99185.53;;;10.27;100.00
61086;BME280;46967;48.876;2.136;2023-03-14T04:01:44;99189.13;;;10.24;100.00
61086;BME280;46967;48.876;2.136;2023-03-14T04:04:10;99189.03;;;10.26;100.00
61086;BME280;46967;48.876;2.136;2023-03-14T04:06:36;99199.16;;;10.30;100.00
61086;BME280;46967;48.876;2.136;2023-03-14T04:09:02;99197.38;;;10.32;100.00
61086;BME280;46967;48.876;2.136;2023-03-14T04:11:28;99210.16;;;10.36;100.00
61086;BME280;46967;48.876;2.136;2023-03-14T04:13:53;99213.47;;;10.22;100.00
61086;BME280;46967;48.876;2.136;2023-03-14T04:16:21;99212.59;;;10.21;100.00
61086;BME280;46967;48.876;2.136;2023-03-14T04:18:47;99217.78;;;10.21;100.00
61086;BME280;46967;48.876;2.136;2023-03-14T04:21:12;99224.81;;;10.19;100.00
61086;BME280;46967;48.876;2.136;2023-03-14T04:23:38;99236.97;;;10.19;100.00
61086;BME280;46967;48.876;2.136;2023-03-14T04:26:03;99233.78;;;10.13;100.00
61086;BME280;46967;48.876;2.136;2023-03-14T04:28:29;99238.78;;;10.16;100.00
61086;BME280;46967;48.876;2.136;2023-03-14T04:30:54;99260.88;;;10.24;100.00
61086;BME280;46967;48.876;2.136;2023-03-14T04:33:20;99249.25;;;10.15;100.00
61086;BME280;46967;48.876;2.136;2023-03-14T04:35:46;99267.41;;;10.15;100.00
61086;BME280;46967;48.876;2.136;2023-03-14T04:38:12;99283.88;;;10.14;100.00
61086;BME280;46967;48.876;2.136;2023-03-14T04:40:39;99311.59;;;9.96;100.00
61086;BME280;46967;48.876;2.136;2023-03-14T04:43:05;99333.69;;;9.86;100.00
61086;BME280;46967;48.876;2.136;2023-03-14T04:45:31;99338.72;;;9.71;100.00
61086;BME280;46967;48.876;2.136;2023-03-14T04:47:56;99378.91;;;9.61;100.00
61086;BME280;46967;48.876;2.136;2023-03-14T04:50:21;99375.47;;;9.43;100.00
61086;BME280;46967;48.876;2.136;2023-03-14T04:52:47;99381.00;;;9.35;100.00
61086;BME280;46967;48.876;2.136;2023-03-14T04:55:13;99399.50;;;9.09;100.00
61086;BME280;46967;48.876;2.136;2023-03-14T04:57:38;99419.56;;;9.03;100.00
61086;BME280;46967;48.876;2.136;2023-03-14T05:00:04;99414.66;;;8.97;99.56
61086;BME280;46967;48.876;2.136;2023-03-14T05:02:33;99451.88;;;8.76;97.84
61086;BME280;46967;48.876;2.136;2023-03-14T05:04:58;99439.53;;;8.62;96.33
61086;BME280;46967;48.876;2.136;2023-03-14T05:07:24;99450.25;;;8.52;96.42
61086;BME280;46967;48.876;2.136;2023-03-14T05:09:49;99461.69;;;8.47;96.47
61086;BME280;46967;48.876;2.136;2023-03-14T05:12:14;99481.66;;;8.43;97.11
61086;BME280;46967;48.876;2.136;2023-03-14T05:14:40;99478.91;;;8.48;96.15
61086;BME280;46967;48.876;2.136;2023-03-14T05:17:05;99489.66;;;8.37;96.17
61086;BME280;46967;48.876;2.136;2023-03-14T05:19:31;99492.28;;;8.35;97.17
61086;BME280;46967;48.876;2.136;2023-03-14T05:21:56;99508.66;;;8.36;97.53
61086;BME280;46967;48.876;2.136;2023-03-14T05:24:21;99511.13;;;8.39;96.77
61086;BME280;46967;48.876;2.136;2023-03-14T05:26:47;99517.31;;;8.35;95.96
61086;BME280;46967;48.876;2.136;2023-03-14T05:29:12;99537.22;;;8.33;96.72
61086;BME280;46967;48.876;2.136;2023-03-14T05:31:38;99545.03;;;8.31;95.97
61086;BME280;46967;48.876;2.136;2023-03-14T05:34:03;99552.28;;;8.23;93.78
61086;BME280;46967;48.876;2.136;2023-03-14T05:36:28;99570.44;;;8.22;93.45
61086;BME280;46967;48.876;2.136;2023-03-14T05:38:54;99591.22;;;8.19;92.87
61086;BME280;46967;48.876;2.136;2023-03-14T05:41:19;99573.31;;;8.14;90.96
61086;BME280;46967;48.876;2.136;2023-03-14T05:43:44;99587.94;;;8.13;89.68
61086;BME280;46967;48.876;2.136;2023-03-14T05:46:10;99588.94;;;8.11;89.65
61086;BME280;46967;48.876;2.136;2023-03-14T05:48:35;99603.47;;;8.13;90.49
61086;BME280;46967;48.876;2.136;2023-03-14T05:51:00;99627.75;;;8.09;88.47
61086;BME280;46967;48.876;2.136;2023-03-14T05:53:26;99631.13;;;8.11;88.49
61086;BME280;46967;48.876;2.136;2023-03-14T05:55:53;99638.31;;;8.03;86.46
61086;BME280;46967;48.876;2.136;2023-03-14T05:58:18;99647.25;;;7.94;87.06
61086;BME280;46967;48.876;2.136;2023-03-14T06:00:44;99671.81;;;7.83;85.94
61086;BME280;46967;48.876;2.136;2023-03-14T06:03:09;99682.19;;;7.81;83.00
61086;BME280;46967;48.876;2.136;2023-03-14T06:05:34;99682.41;;;7.75;82.40
61086;BME280;46967;48.876;2.136;2023-03-14T06:08:00;99693.88;;;7.68;83.05
61086;BME280;46967;48.876;2.136;2023-03-14T06:10:25;99707.00;;;7.61;84.38
61086;BME280;46967;48.876;2.136;2023-03-14T06:12:50;99709.63;;;7.60;85.18
61086;BME280;46967;48.876;2.136;2023-03-14T06:15:16;99715.78;;;7.56;83.27
61086;BME280;46967;48.876;2.136;2023-03-14T06:17:41;99727.03;;;7.53;82.79
61086;BME280;46967;48.876;2.136;2023-03-14T06:20:07;99739.13;;;7.53;83.71
61086;BME280;46967;48.876;2.136;2023-03-14T06:22:33;99737.50;;;7.50;83.89
61086;BME280;46967;48.876;2.136;2023-03-14T06:24:58;99760.75;;;7.50;84.28
61086;BME280;46967;48.876;2.136;2023-03-14T06:27:24;99753.25;;;7.42;84.27
61086;BME280;46967;48.876;2.136;2023-03-14T06:29:49;99770.50;;;7.40;83.47
61086;BME280;46967;48.876;2.136;2023-03-14T06:32:14;99779.06;;;7.42;83.77
61086;BME280;46967;48.876;2.136;2023-03-14T06:34:40;99788.69;;;7.37;83.43
61086;BME280;46967;48.876;2.136;2023-03-14T06:37:06;99802.31;;;7.42;82.88
61086;BME280;46967;48.876;2.136;2023-03-14T06:39:31;99798.16;;;7.37;82.00
61086;BME280;46967;48.876;2.136;2023-03-14T06:41:56;99813.59;;;7.38;82.43
61086;BME280;46967;48.876;2.136;2023-03-14T06:44:22;99819.66;;;7.37;81.12
61086;BME280;46967;48.876;2.136;2023-03-14T06:46:47;99832.75;;;7.33;81.27
61086;BME280;46967;48.876;2.136;2023-03-14T06:49:12;99838.00;;;7.30;80.92
61086;BME280;46967;48.876;2.136;2023-03-14T06:51:38;99864.59;;;7.32;80.33
61086;BME280;46967;48.876;2.136;2023-03-14T06:54:05;99866.34;;;7.31;80.53
61086;BME280;46967;48.876;2.136;2023-03-14T06:56:30;99864.69;;;7.29;79.53
61086;BME280;46967;48.876;2.136;2023-03-14T06:58:55;99878.47;;;7.28;79.97
61086;BME280;46967;48.876;2.136;2023-03-14T07:01:26;99882.00;;;7.25;79.52
61086;BME280;46967;48.876;2.136;2023-03-14T07:03:52;99894.88;;;7.27;77.55
61086;BME280;46967;48.876;2.136;2023-03-14T07:06:18;99898.44;;;7.22;78.09
61086;BME280;46967;48.876;2.136;2023-03-14T07:08:43;99896.81;;;7.18;78.56
61086;BME280;46967;48.876;2.136;2023-03-14T07:11:09;99904.59;;;7.17;78.10
61086;BME280;46967;48.876;2.136;2023-03-14T07:13:36;99913.25;;;7.16;77.71
61086;BME280;46967;48.876;2.136;2023-03-14T07:16:02;99921.03;;;7.14;76.59
61086;BME280;46967;48.876;2.136;2023-03-14T07:18:27;99930.41;;;7.17;76.92
61086;BME280;46967;48.876;2.136;2023-03-14T07:20:53;99938.41;;;7.09;76.88
61086;BME280;46967;48.876;2.136;2023-03-14T07:23:18;99956.34;;;7.14;77.50
61086;BME280;46967;48.876;2.136;2023-03-14T07:25:44;99974.28;;;7.17;75.10
61086;BME280;46967;48.876;2.136;2023-03-14T07:28:09;99978.38;;;7.24;75.65
61086;BME280;46967;48.876;2.136;2023-03-14T07:30:34;99981.09;;;7.19;75.84
61086;BME280;46967;48.876;2.136;2023-03-14T07:33:00;99989.63;;;7.21;74.75
61086;BME280;46967;48.876;2.136;2023-03-14T07:35:25;100002.31;;;7.29;74.49
61086;BME280;46967;48.876;2.136;2023-03-14T07:37:50;100003.91;;;7.35;75.23
61086;BME280;46967;48.876;2.136;2023-03-14T07:40:16;100006.44;;;7.36;74.00
61086;BME280;46967;48.876;2.136;2023-03-14T07:42:42;100013.00;;;7.47;74.57
61086;BME280;46967;48.876;2.136;2023-03-14T07:45:09;100016.09;;;7.58;73.52
61086;BME280;46967;48.876;2.136;2023-03-14T07:47:35;100036.97;;;7.80;74.42
61086;BME280;46967;48.876;2.136;2023-03-14T07:50:00;100041.47;;;8.02;74.31
61086;BME280;46967;48.876;2.136;2023-03-14T07:52:26;100034.47;;;8.05;73.20
61086;BME280;46967;48.876;2.136;2023-03-14T07:54:51;100041.81;;;7.91;73.01
61086;BME280;46967;48.876;2.136;2023-03-14T07:57:17;100049.16;;;8.05;72.72
61086;BME280;46967;48.876;2.136;2023-03-14T07:59:42;100045.88;;;8.00;71.87
61086;BME280;46967;48.876;2.136;2023-03-14T08:02:10;100059.53;;;8.03;73.57
61086;BME280;46967;48.876;2.136;2023-03-14T08:04:37;100056.06;;;8.04;72.97
61086;BME280;46967;48.876;2.136;2023-03-14T08:07:02;100058.47;;;8.09;73.33
61086;BME280;46967;48.876;2.136;2023-03-14T08:09:28;100051.06;;;8.26;71.80
61086;BME280;46967;48.876;2.136;2023-03-14T08:11:53;100053.31;;;8.35;71.96
61086;BME280;46967;48.876;2.136;2023-03-14T08:14:18;100066.00;;;8.45;71.88
61086;BME280;46967;48.876;2.136;2023-03-14T08:16:44;100066.31;;;8.61;71.49
61086;BME280;46967;48.876;2.136;2023-03-14T08:19:09;100070.97;;;8.51;71.49
61086;BME280;46967;48.876;2.136;2023-03-14T08:21:34;100085.56;;;8.54;72.79
61086;BME280;46967;48.876;2.136;2023-03-14T08:24:00;100081.34;;;8.49;72.54
61086;BME280;46967;48.876;2.136;2023-03-14T08:26:25;100084.69;;;8.53;71.99
61086;BME280;46967;48.876;2.136;2023-03-14T08:28:51;100092.38;;;8.55;72.37
61086;BME280;46967;48.876;2.136;2023-03-14T08:31:17;100095.69;;;8.60;72.89
61086;BME280;46967;48.876;2.136;2023-03-14T08:33:42;100104.03;;;8.68;72.10
61086;BME280;46967;48.876;2.136;2023-03-14T08:36:08;100106.13;;;8.83;72.58
61086;BME280;46967;48.876;2.136;2023-03-14T08:38:33;100105.25;;;8.83;71.11
61086;BME280;46967;48.876;2.136;2023-03-14T08:41:00;100109.31;;;8.92;70.83
61086;BME280;46967;48.876;2.136;2023-03-14T08:43:26;100114.63;;;9.12;71.13
61086;BME280;46967;48.876;2.136;2023-03-14T08:45:52;100113.28;;;9.25;69.96
61086;BME280;46967;48.876;2.136;2023-03-14T08:48:18;100117.88;;;9.42;70.26
61086;BME280;46967;48.876;2.136;2023-03-14T08:50:44;100138.22;;;9.53;69.75
61086;BME280;46967;48.876;2.136;2023-03-14T08:53:10;100134.88;;;9.50;70.29
61086;BME280;46967;48.876;2.136;2023-03-14T08:55:35;100133.84;;;9.30;70.44
61086;BME280;46967;48.876;2.136;2023-03-14T08:58:01;100145.47;;;9.43;71.03
61086;BME280;46967;48.876;2.136;2023-03-14T09:00:26;100139.06;;;9.54;71.56
61086;BME280;46967;48.876;2.136;2023-03-14T09:02:52;100142.50;;;9.04;71.34
61086;BME280;46967;48.876;2.136;2023-03-14T09:05:17;100143.56;;;8.98;73.31
61086;BME280;46967;48.876;2.136;2023-03-14T09:07:42;100147.53;;;9.09;72.80
61086;BME280;46967;48.876;2.136;2023-03-14T09:10:09;100151.66;;;9.14;71.92
61086;BME280;46967;48.876;2.136;2023-03-14T09:12:35;100183.09;;;9.29;71.80
61086;BME280;46967;48.876;2.136;2023-03-14T09:15:00;100173.06;;;8.93;71.17
61086;BME280;46967;48.876;2.136;2023-03-14T09:17:26;100174.25;;;8.84;72.41
61086;BME280;46967;48.876;2.136;2023-03-14T09:19:51;100184.84;;;8.76;72.71
61086;BME280;46967;48.876;2.136;2023-03-14T09:22:16;100208.63;;;8.59;73.74
61086;BME280;46967;48.876;2.136;2023-03-14T09:24:42;100230.56;;;8.47;78.09
61086;BME280;46967;48.876;2.136;2023-03-14T09:27:08;100261.16;;;7.69;83.72
61086;BME280;46967;48.876;2.136;2023-03-14T09:29:34;100261.84;;;7.06;89.99
61086;BME280;46967;48.876;2.136;2023-03-14T09:31:59;100250.16;;;6.93;92.20
61086;BME280;46967;48.876;2.136;2023-03-14T09:34:25;100259.69;;;6.88;91.78
61086;BME280;46967;48.876;2.136;2023-03-14T09:36:51;100262.00;;;7.00;92.73
61086;BME280;46967;48.876;2.136;2023-03-14T09:39:16;100267.06;;;7.41;92.20
61086;BME280;46967;48.876;2.136;2023-03-14T09:41:50;100282.34;;;7.82;92.85
61086;BME280;46967;48.876;2.136;2023-03-14T09:44:25;100281.28;;;7.90;90.83
61086;BME280;46967;48.876;2.136;2023-03-14T09:46:53;100290.25;;;8.08;91.61
61086;BME280;46967;48.876;2.136;2023-03-14T09:49:31;100331.00;;;7.98;90.67
61086;BME280;46967;48.876;2.136;2023-03-14T09:52:00;100349.72;;;7.39;88.27
61086;BME280;46967;48.876;2.136;2023-03-14T09:54:31;100349.56;;;7.08;91.58
61086;BME280;46967;48.876;2.136;2023-03-14T09:56:58;100340.56;;;6.87;89.11
61086;BME280;46967;48.876;2.136;2023-03-14T09:59:23;100356.84;;;6.89;90.26
61086;BME280;46967;48.876;2.136;2023-03-14T10:01:49;100356.41;;;6.70;87.80
61086;BME280;46967;48.876;2.136;2023-03-14T10:04:17;100383.38;;;6.55;88.64
61086;BME280;46967;48.876;2.136;2023-03-14T10:06:46;100361.94;;;6.50;88.01
61086;BME280;46967;48.876;2.136;2023-03-14T10:09:21;100363.38;;;6.65;89.09
61086;BME280;46967;48.876;2.136;2023-03-14T10:11:57;100368.34;;;6.76;88.68
61086;BME280;46967;48.876;2.136;2023-03-14T10:14:44;100362.97;;;7.24;85.85
61086;BME280;46967;48.876;2.136;2023-03-14T10:17:12;100361.50;;;7.50;85.00
61086;BME280;46967;48.876;2.136;2023-03-14T10:19:55;100367.78;;;7.74;86.29
61086;BME280;46967;48.876;2.136;2023-03-14T10:22:23;100369.59;;;8.05;84.85
61086;BME280;46967;48.876;2.136;2023-03-14T10:24:55;100357.91;;;8.23;83.39
61086;BME280;46967;48.876;2.136;2023-03-14T10:27:33;100365.25;;;8.38;82.17
61086;BME280;46967;48.876;2.136;2023-03-14T10:30:07;100382.00;;;8.58;80.72
61086;BME280;46967;48.876;2.136;2023-03-14T10:32:34;100385.44;;;8.88;79.79
61086;BME280;46967;48.876;2.136;2023-03-14T10:35:20;100383.44;;;8.98;77.49
61086;BME280;46967;48.876;2.136;2023-03-14T10:37:56;100399.44;;;9.11;78.82
61086;BME280;46967;48.876;2.136;2023-03-14T10:40:26;100407.66;;;9.25;76.93
61086;BME280;46967;48.876;2.136;2023-03-14T10:42:53;100431.56;;;8.08;78.94
61086;BME280;46967;48.876;2.136;2023-03-14T10:45:38;100435.56;;;7.48;84.61
61086;BME280;46967;48.876;2.136;2023-03-14T10:48:28;100437.59;;;7.35;87.78
61086;BME280;46967;48.876;2.136;2023-03-14T10:51:07;100435.47;;;7.52;83.15
61086;BME280;46967;48.876;2.136;2023-03-14T10:53:39;100442.38;;;7.88;86.08
61086;BME280;46967;48.876;2.136;2023-03-14T10:56:06;100446.38;;;8.34;85.13
61086;BME280;46967;48.876;2.136;2023-03-14T10:58:35;100441.13;;;8.37;83.03
61086;BME280;46967;48.876;2.136;2023-03-14T11:04:25;100438.47;;;8.73;77.06
61086;BME280;46967;48.876;2.136;2023-03-14T11:10:10;100455.38;;;9.16;73.75
61086;BME280;46967;48.876;2.136;2023-03-14T11:15:40;100455.44;;;9.43;69.15
61086;BME280;46967;48.876;2.136;2023-03-14T11:18:27;100449.09;;;9.53;68.56
61086;BME280;46967;48.876;2.136;2023-03-14T11:28:58;100446.50;;;10.07;57.42
61086;BME280;46967;48.876;2.136;2023-03-14T11:31:29;100439.91;;;10.23;60.59
61086;BME280;46967;48.876;2.136;2023-03-14T11:34:40;100449.03;;;10.35;58.72
61086;BME280;46967;48.876;2.136;2023-03-14T11:36:51;100437.94;;;10.80;56.15
61086;BME280;46967;48.876;2.136;2023-03-14T11:39:19;100451.47;;;10.40;54.86
61086;BME280;46967;48.876;2.136;2023-03-14T11:41:52;100454.03;;;10.41;55.18
61086;BME280;46967;48.876;2.136;2023-03-14T11:44:22;100458.91;;;10.24;55.30
61086;BME280;46967;48.876;2.136;2023-03-14T11:46:57;100453.25;;;10.39;53.74
61086;BME280;46967;48.876;2.136;2023-03-14T11:49:58;100471.00;;;10.25;52.92
61086;BME280;46967;48.876;2.136;2023-03-14T11:55:20;100475.50;;;10.45;55.21
61086;BME280;46967;48.876;2.136;2023-03-14T11:57:49;100481.13;;;10.32;53.18
61086;BME280;46967;48.876;2.136;2023-03-14T12:00:20;100502.16;;;10.50;50.66
61086;BME280;46967;48.876;2.136;2023-03-14T12:03:03;100471.19;;;10.71;51.77
61086;BME280;46967;48.876;2.136;2023-03-14T12:08:46;100488.13;;;11.04;49.21
61086;BME280;46967;48.876;2.136;2023-03-14T12:11:17;100496.63;;;11.32;50.37
61086;BME280;46967;48.876;2.136;2023-03-14T12:13:50;100494.03;;;11.32;48.97
61086;BME280;46967;48.876;2.136;2023-03-14T12:18:47;100508.47;;;11.63;46.38
61086;BME280;46967;48.876;2.136;2023-03-14T12:21:13;100483.91;;;11.70;46.97
61086;BME280;46967;48.876;2.136;2023-03-14T12:23:47;100480.78;;;11.84;47.46
61086;BME280;46967;48.876;2.136;2023-03-14T12:26:19;100502.66;;;11.78;45.39
61086;BME280;46967;48.876;2.136;2023-03-14T12:34:26;100477.06;;;12.53;46.15
61086;BME280;46967;48.876;2.136;2023-03-14T12:36:58;100488.56;;;12.48;47.55
61086;BME280;46967;48.876;2.136;2023-03-14T12:39:31;100486.19;;;12.22;45.76
61086;BME280;46967;48.876;2.136;2023-03-14T12:42:11;100489.16;;;11.68;46.58
61086;BME280;46967;48.876;2.136;2023-03-14T12:44:44;100494.34;;;11.46;47.69
61086;BME280;46967;48.876;2.136;2023-03-14T12:49:49;100504.94;;;11.18;49.43
61086;BME280;46967;48.876;2.136;2023-03-14T12:52:27;100501.59;;;11.38;49.93
61086;BME280;46967;48.876;2.136;2023-03-14T13:00:00;100502.63;;;11.56;49.69
61086;BME280;46967;48.876;2.136;2023-03-14T13:02:41;100506.44;;;11.93;49.48
61086;BME280;46967;48.876;2.136;2023-03-14T13:05:23;100506.47;;;11.69;50.36
61086;BME280;46967;48.876;2.136;2023-03-14T13:15:40;100499.13;;;12.03;51.30
61086;BME280;46967;48.876;2.136;2023-03-14T13:18:14;100509.34;;;12.28;52.30
61086;BME280;46967;48.876;2.136;2023-03-14T13:20:59;100522.88;;;12.36;52.01
61086;BME280;46967;48.876;2.136;2023-03-14T13:23:28;100517.03;;;12.31;53.17
61086;BME280;46967;48.876;2.136;2023-03-14T13:25:55;100548.47;;;11.35;53.57
61086;BME280;46967;48.876;2.136;2023-03-14T13:28:21;100576.53;;;10.76;56.17
61086;BME280;46967;48.876;2.136;2023-03-14T13:30:48;100600.59;;;9.70;67.23
61086;BME280;46967;48.876;2.136;2023-03-14T13:33:19;100658.19;;;8.07;79.73
61086;BME280;46967;48.876;2.136;2023-03-14T13:35:48;100645.88;;;7.76;86.49
61086;BME280;46967;48.876;2.136;2023-03-14T13:38:26;100657.69;;;7.46;84.52
61086;BME280;46967;48.876;2.136;2023-03-14T13:40:55;100653.66;;;7.33;87.01
61086;BME280;46967;48.876;2.136;2023-03-14T13:43:33;100646.75;;;7.33;87.74
61086;BME280;46967;48.876;2.136;2023-03-14T13:46:06;100645.47;;;7.54;88.54
61086;BME280;46967;48.876;2.136;2023-03-14T13:48:34;100634.97;;;8.04;84.06
61086;BME280;46967;48.876;2.136;2023-03-14T13:51:05;100630.41;;;8.15;83.38
61086;BME280;46967;48.876;2.136;2023-03-14T13:53:31;100623.38;;;8.22;82.25
61086;BME280;46967;48.876;2.136;2023-03-14T13:56:02;100636.72;;;8.41;82.32
61086;BME280;46967;48.876;2.136;2023-03-14T13:58:30;100627.56;;;8.65;82.63